sensor_id;sensor_type;location;lat;lon;timestamp;pressure;altitude;pressure_sealevel;temperature;humidity
58668;BME280;59852;43.086;25.634;2023-03-25T00:01:09;98428.56;;;12.51;54.14
58668;BME280;59852;43.086;25.634;2023-03-25T00:03:38;98428.75;;;12.59;53.99
58668;BME280;59852;43.086;25.634;2023-03-25T00:06:06;98424.47;;;12.37;54.42
58668;BME280;59852;43.086;25.634;2023-03-25T00:08:31;98418.91;;;12.51;54.24
58668;BME280;59852;43.086;25.634;2023-03-25T00:10:58;98421.91;;;12.47;54.29
58668;BME280;59852;43.086;25.634;2023-03-25T00:13:24;98418.53;;;12.35;54.81
58668;BME280;59852;43.086;25.634;2023-03-25T00:15:50;98412.88;;;12.19;55.47
58668;BME280;59852;43.086;25.634;2023-03-25T00:18:18;98411.28;;;12.27;55.43
58668;BME280;59852;43.086;25.634;2023-03-25T00:20:44;98413.00;;;12.17;55.42
58668;BME280;59852;43.086;25.634;2023-03-25T00:23:13;98407.69;;;12.07;56.06
58668;BME280;59852;43.086;25.634;2023-03-25T00:25:39;98411.13;;;11.87;56.55
58668;BME280;59852;43.086;25.634;2023-03-25T00:28:05;98407.38;;;11.80;56.47
58668;BME280;59852;43.086;25.634;2023-03-25T00:30:32;98409.50;;;11.75;56.71
58668;BME280;59852;43.086;25.634;2023-03-25T00:32:57;98413.56;;;11.68;56.81
58668;BME280;59852;43.086;25.634;2023-03-25T00:35:25;98404.25;;;11.75;56.59
58668;BME280;59852;43.086;25.634;2023-03-25T00:37:53;98406.41;;;11.81;56.52
58668;BME280;59852;43.086;25.634;2023-03-25T00:40:24;98399.13;;;11.73;56.66
58668;BME280;59852;43.086;25.634;2023-03-25T00:42:50;98394.91;;;11.61;56.97
58668;BME280;59852;43.086;25.634;2023-03-25T00:45:15;98405.13;;;11.64;57.57
58668;BME280;59852;43.086;25.634;2023-03-25T00:47:41;98396.78;;;11.59;57.63
58668;BME280;59852;43.086;25.634;2023-03-25T00:50:07;98399.50;;;11.69;56.90
58668;BME280;59852;43.086;25.634;2023-03-25T00:52:33;98399.88;;;11.64;57.46
58668;BME280;59852;43.086;25.634;2023-03-25T00:54:58;98391.41;;;11.72;57.26
58668;BME280;59852;43.086;25.634;2023-03-25T00:57:24;98387.75;;;11.63;57.24
58668;BME280;59852;43.086;25.634;2023-03-25T00:59:49;98383.47;;;11.62;57.27
58668;BME280;59852;43.086;25.634;2023-03-25T01:02:14;98383.56;;;11.72;57.10
58668;BME280;59852;43.086;25.634;2023-03-25T01:04:40;98381.75;;;11.72;56.66
58668;BME280;59852;43.086;25.634;2023-03-25T01:07:05;98378.53;;;11.69;57.05
58668;BME280;59852;43.086;25.634;2023-03-25T01:09:32;98381.94;;;11.48;57.33
58668;BME280;59852;43.086;25.634;2023-03-25T01:11:57;98375.03;;;11.47;57.56
58668;BME280;59852;43.086;25.634;2023-03-25T01:14:23;98375.31;;;11.44;57.73
58668;BME280;59852;43.086;25.634;2023-03-25T01:16:51;98372.69;;;11.44;57.72
58668;BME280;59852;43.086;25.634;2023-03-25T01:19:16;98368.16;;;11.46;57.75
58668;BME280;59852;43.086;25.634;2023-03-25T01:21:42;98363.38;;;11.40;58.71
58668;BME280;59852;43.086;25.634;2023-03-25T01:24:09;98364.78;;;11.56;57.83
58668;BME280;59852;43.086;25.634;2023-03-25T01:26:36;98364.22;;;11.52;57.40
58668;BME280;59852;43.086;25.634;2023-03-25T01:29:02;98366.88;;;11.41;58.12
58668;BME280;59852;43.086;25.634;2023-03-25T01:31:27;98362.34;;;11.43;58.13
58668;BME280;59852;43.086;25.634;2023-03-25T01:33:54;98361.72;;;11.39;58.11
58668;BME280;59852;43.086;25.634;2023-03-25T01:36:20;98361.75;;;11.28;58.36
58668;BME280;59852;43.086;25.634;2023-03-25T01:38:48;98357.13;;;11.20;57.90
58668;BME280;59852;43.086;25.634;2023-03-25T01:41:14;98360.94;;;11.28;57.75
58668;BME280;59852;43.086;25.634;2023-03-25T01:43:40;98350.59;;;11.26;58.22
58668;BME280;59852;43.086;25.634;2023-03-25T01:46:08;98349.16;;;11.33;57.39
58668;BME280;59852;43.086;25.634;2023-03-25T01:48:38;98344.22;;;11.40;57.42
58668;BME280;59852;43.086;25.634;2023-03-25T01:53:34;98340.22;;;11.36;56.85
58668;BME280;59852;43.086;25.634;2023-03-25T01:56:00;98333.00;;;11.17;57.70
58668;BME280;59852;43.086;25.634;2023-03-25T01:58:26;98335.84;;;11.25;57.71
58668;BME280;59852;43.086;25.634;2023-03-25T02:00:53;98335.59;;;11.28;57.66
58668;BME280;59852;43.086;25.634;2023-03-25T02:03:20;98332.19;;;11.48;56.97
58668;BME280;59852;43.086;25.634;2023-03-25T02:05:54;98331.47;;;11.46;57.21
58668;BME280;59852;43.086;25.634;2023-03-25T02:08:21;98329.47;;;11.39;57.45
58668;BME280;59852;43.086;25.634;2023-03-25T02:10:47;98331.91;;;11.19;57.88
58668;BME280;59852;43.086;25.634;2023-03-25T02:13:12;98335.31;;;10.99;58.93
58668;BME280;59852;43.086;25.634;2023-03-25T02:15:51;98336.50;;;10.95;59.15
58668;BME280;59852;43.086;25.634;2023-03-25T02:18:24;98335.41;;;11.09;58.99
58668;BME280;59852;43.086;25.634;2023-03-25T02:26:17;98325.69;;;10.88;58.72
58668;BME280;59852;43.086;25.634;2023-03-25T02:28:53;98327.22;;;10.91;58.84
58668;BME280;59852;43.086;25.634;2023-03-25T02:46:55;98312.88;;;10.74;59.38
58668;BME280;59852;43.086;25.634;2023-03-25T02:49:26;98312.63;;;10.66;59.31
58668;BME280;59852;43.086;25.634;2023-03-25T02:54:28;98300.09;;;11.03;58.09
58668;BME280;59852;43.086;25.634;2023-03-25T02:56:57;98299.50;;;11.00;58.50
58668;BME280;59852;43.086;25.634;2023-03-25T02:59:23;98302.38;;;10.85;58.55
58668;BME280;59852;43.086;25.634;2023-03-25T03:01:57;98293.22;;;10.80;58.34
58668;BME280;59852;43.086;25.634;2023-03-25T03:04:24;98298.13;;;10.73;58.92
58668;BME280;59852;43.086;25.634;2023-03-25T03:06:50;98297.50;;;10.81;58.37
58668;BME280;59852;43.086;25.634;2023-03-25T03:09:19;98291.25;;;10.72;58.78
58668;BME280;59852;43.086;25.634;2023-03-25T03:22:25;98290.75;;;10.67;59.59
58668;BME280;59852;43.086;25.634;2023-03-25T03:27:50;98286.84;;;10.73;59.17
58668;BME280;59852;43.086;25.634;2023-03-25T03:30:23;98277.59;;;10.35;60.73
58668;BME280;59852;43.086;25.634;2023-03-25T03:35:36;98284.34;;;10.60;60.44
58668;BME280;59852;43.086;25.634;2023-03-25T03:38:05;98286.63;;;10.53;59.95
58668;BME280;59852;43.086;25.634;2023-03-25T03:40:33;98286.38;;;10.45;60.72
58668;BME280;59852;43.086;25.634;2023-03-25T03:43:02;98287.34;;;10.44;61.16
58668;BME280;59852;43.086;25.634;2023-03-25T03:45:30;98287.75;;;9.93;62.87
58668;BME280;59852;43.086;25.634;2023-03-25T03:47:59;98288.34;;;9.97;64.15
58668;BME280;59852;43.086;25.634;2023-03-25T03:50:30;98287.53;;;10.19;62.31
58668;BME280;59852;43.086;25.634;2023-03-25T03:55:48;98276.25;;;10.18;62.15
58668;BME280;59852;43.086;25.634;2023-03-25T03:58:35;98278.41;;;10.13;62.14
58668;BME280;59852;43.086;25.634;2023-03-25T04:01:21;98274.78;;;9.92;62.54
58668;BME280;59852;43.086;25.634;2023-03-25T04:03:58;98282.66;;;10.03;62.15
58668;BME280;59852;43.086;25.634;2023-03-25T04:06:42;98276.97;;;10.20;60.81
58668;BME280;59852;43.086;25.634;2023-03-25T04:11:52;98274.78;;;9.92;62.28
58668;BME280;59852;43.086;25.634;2023-03-25T04:14:20;98287.78;;;10.16;61.36
58668;BME280;59852;43.086;25.634;2023-03-25T04:16:45;98289.59;;;10.26;61.24
58668;BME280;59852;43.086;25.634;2023-03-25T04:19:11;98281.50;;;10.41;60.73
58668;BME280;59852;43.086;25.634;2023-03-25T04:21:42;98295.31;;;10.43;60.71
58668;BME280;59852;43.086;25.634;2023-03-25T04:24:08;98288.66;;;9.81;63.74
58668;BME280;59852;43.086;25.634;2023-03-25T04:26:33;98296.38;;;9.83;64.30
58668;BME280;59852;43.086;25.634;2023-03-25T04:29:01;98298.09;;;9.95;63.39
58668;BME280;59852;43.086;25.634;2023-03-25T04:31:28;98292.50;;;9.99;63.99
58668;BME280;59852;43.086;25.634;2023-03-25T04:33:58;98292.88;;;10.06;63.69
58668;BME280;59852;43.086;25.634;2023-03-25T04:36:24;98288.72;;;10.03;63.93
58668;BME280;59852;43.086;25.634;2023-03-25T04:38:53;98301.38;;;10.43;63.10
58668;BME280;59852;43.086;25.634;2023-03-25T04:41:20;98303.63;;;10.37;64.54
58668;BME280;59852;43.086;25.634;2023-03-25T04:43:45;98296.56;;;10.15;65.07
58668;BME280;59852;43.086;25.634;2023-03-25T04:46:11;98305.53;;;10.34;64.38
58668;BME280;59852;43.086;25.634;2023-03-25T04:48:37;98300.06;;;10.26;64.95
58668;BME280;59852;43.086;25.634;2023-03-25T04:51:05;98303.75;;;10.35;64.18
58668;BME280;59852;43.086;25.634;2023-03-25T04:53:31;98301.00;;;10.48;63.85
58668;BME280;59852;43.086;25.634;2023-03-25T04:55:56;98302.66;;;10.60;63.96
58668;BME280;59852;43.086;25.634;2023-03-25T04:58:22;98306.94;;;10.72;63.59
58668;BME280;59852;43.086;25.634;2023-03-25T05:00:49;98304.63;;;10.90;63.04
58668;BME280;59852;43.086;25.634;2023-03-25T05:03:15;98302.56;;;11.16;61.17
58668;BME280;59852;43.086;25.634;2023-03-25T05:05:41;98293.56;;;11.62;59.49
58668;BME280;59852;43.086;25.634;2023-03-25T05:08:07;98299.50;;;11.64;60.24
58668;BME280;59852;43.086;25.634;2023-03-25T05:10:32;98296.78;;;11.86;59.15
58668;BME280;59852;43.086;25.634;2023-03-25T05:12:58;98298.56;;;13.17;55.52
58668;BME280;59852;43.086;25.634;2023-03-25T05:15:24;98301.25;;;16.03;47.75
58668;BME280;59852;43.086;25.634;2023-03-25T05:17:50;98297.88;;;17.54;43.26
58668;BME280;59852;43.086;25.634;2023-03-25T05:20:16;98300.53;;;15.93;46.79
58668;BME280;59852;43.086;25.634;2023-03-25T05:22:41;98305.59;;;14.88;49.50
58668;BME280;59852;43.086;25.634;2023-03-25T05:25:08;98302.16;;;15.23;48.87
58668;BME280;59852;43.086;25.634;2023-03-25T05:27:33;98313.88;;;15.11;49.09
58668;BME280;59852;43.086;25.634;2023-03-25T05:29:59;98307.00;;;15.45;47.96
58668;BME280;59852;43.086;25.634;2023-03-25T05:32:25;98312.28;;;14.45;50.68
58668;BME280;59852;43.086;25.634;2023-03-25T05:34:54;98306.69;;;14.01;52.00
58668;BME280;59852;43.086;25.634;2023-03-25T05:37:19;98307.53;;;13.92;52.26
58668;BME280;59852;43.086;25.634;2023-03-25T05:39:45;98305.53;;;13.47;53.23
58668;BME280;59852;43.086;25.634;2023-03-25T05:42:10;98295.41;;;13.62;52.57
58668;BME280;59852;43.086;25.634;2023-03-25T05:44:36;98308.75;;;12.00;57.71
58668;BME280;59852;43.086;25.634;2023-03-25T05:47:03;98310.13;;;13.05;55.63
58668;BME280;59852;43.086;25.634;2023-03-25T05:49:28;98305.53;;;13.57;54.05
58668;BME280;59852;43.086;25.634;2023-03-25T05:51:53;98311.72;;;12.87;55.85
58668;BME280;59852;43.086;25.634;2023-03-25T05:54:20;98310.03;;;12.67;56.99
58668;BME280;59852;43.086;25.634;2023-03-25T05:56:48;98307.84;;;13.31;54.65
58668;BME280;59852;43.086;25.634;2023-03-25T05:59:13;98302.19;;;13.55;54.90
58668;BME280;59852;43.086;25.634;2023-03-25T06:01:40;98295.25;;;13.73;53.36
58668;BME280;59852;43.086;25.634;2023-03-25T06:04:10;98298.84;;;13.34;53.35
58668;BME280;59852;43.086;25.634;2023-03-25T06:06:37;98295.34;;;14.01;50.81
58668;BME280;59852;43.086;25.634;2023-03-25T06:09:02;98301.56;;;14.10;50.00
58668;BME280;59852;43.086;25.634;2023-03-25T06:11:28;98300.63;;;14.01;49.84
58668;BME280;59852;43.086;25.634;2023-03-25T06:13:53;98297.53;;;14.05;49.89
58668;BME280;59852;43.086;25.634;2023-03-25T06:16:19;98302.41;;;14.00;48.80
58668;BME280;59852;43.086;25.634;2023-03-25T06:18:49;98298.81;;;14.01;49.27
58668;BME280;59852;43.086;25.634;2023-03-25T06:21:20;98305.44;;;13.96;49.45
58668;BME280;59852;43.086;25.634;2023-03-25T06:23:45;98302.16;;;13.65;50.67
58668;BME280;59852;43.086;25.634;2023-03-25T06:26:13;98302.00;;;13.86;51.11
58668;BME280;59852;43.086;25.634;2023-03-25T06:28:39;98309.47;;;14.00;50.38
58668;BME280;59852;43.086;25.634;2023-03-25T06:31:04;98307.41;;;13.84;50.46
58668;BME280;59852;43.086;25.634;2023-03-25T06:33:36;98311.38;;;14.17;48.69
58668;BME280;59852;43.086;25.634;2023-03-25T06:36:01;98307.34;;;14.23;47.88
58668;BME280;59852;43.086;25.634;2023-03-25T06:38:26;98309.31;;;14.11;48.52
58668;BME280;59852;43.086;25.634;2023-03-25T06:40:54;98310.72;;;13.96;49.54
58668;BME280;59852;43.086;25.634;2023-03-25T06:43:21;98310.75;;;13.76;50.06
58668;BME280;59852;43.086;25.634;2023-03-25T06:45:49;98313.75;;;14.11;49.73
58668;BME280;59852;43.086;25.634;2023-03-25T06:48:14;98317.28;;;14.29;49.46
58668;BME280;59852;43.086;25.634;2023-03-25T06:50:40;98321.41;;;14.41;49.59
58668;BME280;59852;43.086;25.634;2023-03-25T06:53:05;98317.94;;;14.50;48.41
58668;BME280;59852;43.086;25.634;2023-03-25T06:55:30;98329.16;;;14.52;48.73
58668;BME280;59852;43.086;25.634;2023-03-25T06:57:56;98328.97;;;14.63;47.92
58668;BME280;59852;43.086;25.634;2023-03-25T07:00:21;98326.88;;;14.67;47.92
58668;BME280;59852;43.086;25.634;2023-03-25T07:02:48;98327.97;;;14.64;47.96
58668;BME280;59852;43.086;25.634;2023-03-25T07:05:14;98326.63;;;14.60;49.06
58668;BME280;59852;43.086;25.634;2023-03-25T07:07:39;98321.22;;;14.89;47.73
58668;BME280;59852;43.086;25.634;2023-03-25T07:10:05;98326.28;;;15.01;48.03
58668;BME280;59852;43.086;25.634;2023-03-25T07:12:32;98320.28;;;15.08;47.72
58668;BME280;59852;43.086;25.634;2023-03-25T07:14:57;98324.81;;;15.16;47.83
58668;BME280;59852;43.086;25.634;2023-03-25T07:17:23;98319.78;;;15.05;48.42
58668;BME280;59852;43.086;25.634;2023-03-25T07:19:48;98317.41;;;15.02;48.28
58668;BME280;59852;43.086;25.634;2023-03-25T07:22:14;98314.22;;;15.26;49.35
58668;BME280;59852;43.086;25.634;2023-03-25T07:24:40;98311.88;;;15.40;48.76
58668;BME280;59852;43.086;25.634;2023-03-25T07:27:05;98317.41;;;15.47;47.59
58668;BME280;59852;43.086;25.634;2023-03-25T07:29:30;98318.59;;;15.35;47.11
58668;BME280;59852;43.086;25.634;2023-03-25T07:31:56;98318.69;;;15.61;47.05
58668;BME280;59852;43.086;25.634;2023-03-25T07:34:21;98310.63;;;15.80;46.34
58668;BME280;59852;43.086;25.634;2023-03-25T07:36:46;98317.69;;;15.97;46.97
58668;BME280;59852;43.086;25.634;2023-03-25T07:39:12;98314.59;;;16.28;45.81
58668;BME280;59852;43.086;25.634;2023-03-25T07:41:37;98311.38;;;16.16;45.96
58668;BME280;59852;43.086;25.634;2023-03-25T07:44:02;98309.56;;;16.43;44.81
58668;BME280;59852;43.086;25.634;2023-03-25T07:46:28;98310.41;;;16.77;44.72
58668;BME280;59852;43.086;25.634;2023-03-25T07:48:53;98307.00;;;16.59;44.68
58668;BME280;59852;43.086;25.634;2023-03-25T07:51:19;98309.31;;;16.96;43.47
58668;BME280;59852;43.086;25.634;2023-03-25T07:53:44;98307.44;;;17.31;43.05
58668;BME280;59852;43.086;25.634;2023-03-25T07:56:10;98312.75;;;17.55;43.46
58668;BME280;59852;43.086;25.634;2023-03-25T07:58:36;98303.53;;;17.92;42.16
58668;BME280;59852;43.086;25.634;2023-03-25T08:01:01;98309.59;;;18.33;42.14
58668;BME280;59852;43.086;25.634;2023-03-25T08:03:27;98310.41;;;18.42;41.20
58668;BME280;59852;43.086;25.634;2023-03-25T08:05:52;98306.31;;;18.06;40.94
58668;BME280;59852;43.086;25.634;2023-03-25T08:08:17;98313.34;;;18.55;41.56
58668;BME280;59852;43.086;25.634;2023-03-25T08:10:43;98314.31;;;19.09;39.50
58668;BME280;59852;43.086;25.634;2023-03-25T08:13:10;98311.22;;;18.42;39.78
58668;BME280;59852;43.086;25.634;2023-03-25T08:15:36;98304.63;;;18.94;39.75
58668;BME280;59852;43.086;25.634;2023-03-25T08:18:01;98301.19;;;18.85;39.41
58668;BME280;59852;43.086;25.634;2023-03-25T08:20:28;98306.16;;;19.19;38.38
58668;BME280;59852;43.086;25.634;2023-03-25T08:22:53;98305.75;;;18.99;38.74
58668;BME280;59852;43.086;25.634;2023-03-25T08:25:18;98306.81;;;18.82;39.63
58668;BME280;59852;43.086;25.634;2023-03-25T08:27:44;98307.41;;;19.00;39.49
58668;BME280;59852;43.086;25.634;2023-03-25T08:30:10;98297.44;;;19.33;38.61
58668;BME280;59852;43.086;25.634;2023-03-25T08:32:38;98301.31;;;19.45;37.98
58668;BME280;59852;43.086;25.634;2023-03-25T08:35:04;98299.16;;;19.49;37.40
58668;BME280;59852;43.086;25.634;2023-03-25T08:37:30;98291.72;;;19.22;38.59
58668;BME280;59852;43.086;25.634;2023-03-25T08:40:00;98292.16;;;19.56;36.64
58668;BME280;59852;43.086;25.634;2023-03-25T08:42:25;98286.97;;;19.40;36.38
58668;BME280;59852;43.086;25.634;2023-03-25T08:44:50;98285.72;;;20.11;35.99
58668;BME280;59852;43.086;25.634;2023-03-25T08:47:16;98276.66;;;20.35;36.13
58668;BME280;59852;43.086;25.634;2023-03-25T08:49:41;98278.72;;;20.62;34.73
58668;BME280;59852;43.086;25.634;2023-03-25T08:52:07;98274.00;;;20.05;36.45
58668;BME280;59852;43.086;25.634;2023-03-25T08:54:32;98276.63;;;20.05;36.39
58668;BME280;59852;43.086;25.634;2023-03-25T08:56:58;98271.97;;;20.45;36.16
58668;BME280;59852;43.086;25.634;2023-03-25T08:59:23;98274.69;;;20.37;36.13
58668;BME280;59852;43.086;25.634;2023-03-25T09:01:49;98265.31;;;20.41;37.15
58668;BME280;59852;43.086;25.634;2023-03-25T09:04:14;98265.22;;;20.20;36.26
58668;BME280;59852;43.086;25.634;2023-03-25T09:06:40;98266.03;;;20.35;36.29
58668;BME280;59852;43.086;25.634;2023-03-25T09:09:05;98256.81;;;20.31;38.27
58668;BME280;59852;43.086;25.634;2023-03-25T09:11:31;98265.72;;;21.04;36.77
58668;BME280;59852;43.086;25.634;2023-03-25T09:13:57;98261.31;;;20.60;35.89
58668;BME280;59852;43.086;25.634;2023-03-25T09:16:22;98250.97;;;20.36;36.65
58668;BME280;59852;43.086;25.634;2023-03-25T09:18:48;98250.84;;;20.29;35.83
58668;BME280;59852;43.086;25.634;2023-03-25T09:21:13;98250.09;;;20.35;36.39
58668;BME280;59852;43.086;25.634;2023-03-25T09:23:38;98253.16;;;20.76;36.71
58668;BME280;59852;43.086;25.634;2023-03-25T09:26:04;98243.81;;;20.36;35.43
58668;BME280;59852;43.086;25.634;2023-03-25T09:28:29;98239.44;;;20.58;37.02
58668;BME280;59852;43.086;25.634;2023-03-25T09:30:55;98243.81;;;20.66;35.57
58668;BME280;59852;43.086;25.634;2023-03-25T09:33:21;98243.00;;;20.50;35.16
58668;BME280;59852;43.086;25.634;2023-03-25T09:35:47;98241.91;;;21.32;35.21
58668;BME280;59852;43.086;25.634;2023-03-25T09:38:12;98229.56;;;21.45;34.02
58668;BME280;59852;43.086;25.634;2023-03-25T09:40:43;98240.19;;;21.24;34.49
58668;BME280;59852;43.086;25.634;2023-03-25T09:45:58;98237.69;;;21.23;33.51
58668;BME280;59852;43.086;25.634;2023-03-25T09:48:31;98229.31;;;21.40;33.43
58668;BME280;59852;43.086;25.634;2023-03-25T09:51:00;98229.66;;;20.95;35.69
58668;BME280;59852;43.086;25.634;2023-03-25T09:53:34;98216.28;;;20.88;34.17
58668;BME280;59852;43.086;25.634;2023-03-25T09:56:02;98225.66;;;21.05;33.94
58668;BME280;59852;43.086;25.634;2023-03-25T09:58:41;98227.34;;;20.91;33.86
58668;BME280;59852;43.086;25.634;2023-03-25T10:03:52;98226.31;;;21.50;34.53
58668;BME280;59852;43.086;25.634;2023-03-25T10:06:19;98212.09;;;21.36;34.72
58668;BME280;59852;43.086;25.634;2023-03-25T10:22:16;98211.00;;;21.31;34.26
58668;BME280;59852;43.086;25.634;2023-03-25T10:29:40;98207.97;;;21.34;34.07
58668;BME280;59852;43.086;25.634;2023-03-25T10:32:22;98201.16;;;21.53;34.32
58668;BME280;59852;43.086;25.634;2023-03-25T10:34:50;98198.91;;;21.50;35.14
58668;BME280;59852;43.086;25.634;2023-03-25T10:37:35;98195.19;;;21.44;34.85
58668;BME280;59852;43.086;25.634;2023-03-25T10:40:25;98177.91;;;21.61;34.61
58668;BME280;59852;43.086;25.634;2023-03-25T10:45:19;98173.94;;;21.79;34.17
58668;BME280;59852;43.086;25.634;2023-03-25T10:47:47;98179.16;;;21.93;33.89
58668;BME280;59852;43.086;25.634;2023-03-25T10:50:14;98173.72;;;21.73;34.16
58668;BME280;59852;43.086;25.634;2023-03-25T10:52:40;98172.69;;;21.25;35.37
58668;BME280;59852;43.086;25.634;2023-03-25T10:55:07;98164.88;;;21.24;34.99
58668;BME280;59852;43.086;25.634;2023-03-25T10:57:41;98172.78;;;21.60;34.12
58668;BME280;59852;43.086;25.634;2023-03-25T11:00:08;98171.59;;;21.41;35.30
58668;BME280;59852;43.086;25.634;2023-03-25T11:02:43;98170.97;;;21.39;34.15
58668;BME280;59852;43.086;25.634;2023-03-25T11:05:09;98165.72;;;21.73;33.61
58668;BME280;59852;43.086;25.634;2023-03-25T11:07:41;98164.00;;;21.94;34.16
58668;BME280;59852;43.086;25.634;2023-03-25T11:10:40;98154.97;;;21.60;34.41
58668;BME280;59852;43.086;25.634;2023-03-25T11:12:59;98151.28;;;21.61;35.75
58668;BME280;59852;43.086;25.634;2023-03-25T11:15:34;98156.06;;;21.23;35.90
58668;BME280;59852;43.086;25.634;2023-03-25T11:20:36;98149.50;;;20.98;37.13
58668;BME280;59852;43.086;25.634;2023-03-25T11:23:05;98147.75;;;21.26;36.63
58668;BME280;59852;43.086;25.634;2023-03-25T11:25:34;98148.91;;;21.24;36.54
58668;BME280;59852;43.086;25.634;2023-03-25T11:28:01;98148.28;;;21.71;36.13
58668;BME280;59852;43.086;25.634;2023-03-25T11:30:28;98137.66;;;22.05;35.77
58668;BME280;59852;43.086;25.634;2023-03-25T11:35:27;98125.66;;;21.54;36.94
58668;BME280;59852;43.086;25.634;2023-03-25T11:37:54;98132.50;;;21.41;37.02
58668;BME280;59852;43.086;25.634;2023-03-25T11:40:20;98123.59;;;21.84;36.64
58668;BME280;59852;43.086;25.634;2023-03-25T11:42:50;98127.50;;;21.88;36.43
58668;BME280;59852;43.086;25.634;2023-03-25T11:45:20;98128.22;;;21.40;37.32
58668;BME280;59852;43.086;25.634;2023-03-25T11:47:46;98134.97;;;21.43;37.62
58668;BME280;59852;43.086;25.634;2023-03-25T11:50:18;98125.38;;;21.20;38.31
58668;BME280;59852;43.086;25.634;2023-03-25T11:52:44;98120.19;;;21.34;37.54
58668;BME280;59852;43.086;25.634;2023-03-25T11:55:34;98123.94;;;20.97;37.63
58668;BME280;59852;43.086;25.634;2023-03-25T11:57:57;98128.16;;;20.91;37.36
58668;BME280;59852;43.086;25.634;2023-03-25T12:00:36;98128.81;;;21.14;36.44
58668;BME280;59852;43.086;25.634;2023-03-25T12:05:31;98120.13;;;21.27;35.82
58668;BME280;59852;43.086;25.634;2023-03-25T12:08:02;98124.25;;;21.58;35.56
58668;BME280;59852;43.086;25.634;2023-03-25T12:17:52;98114.38;;;22.14;35.39
58668;BME280;59852;43.086;25.634;2023-03-25T12:41:21;98101.56;;;21.12;33.22
58668;BME280;59852;43.086;25.634;2023-03-25T12:44:18;98103.16;;;21.56;33.60
58668;BME280;59852;43.086;25.634;2023-03-25T12:54:45;98087.81;;;21.30;33.08
58668;BME280;59852;43.086;25.634;2023-03-25T13:00:02;98078.69;;;20.69;33.55
58668;BME280;59852;43.086;25.634;2023-03-25T13:08:10;98068.56;;;20.79;34.10
58668;BME280;59852;43.086;25.634;2023-03-25T13:10:37;98072.53;;;20.68;34.58
58668;BME280;59852;43.086;25.634;2023-03-25T13:13:11;98064.44;;;20.55;34.59
58668;BME280;59852;43.086;25.634;2023-03-25T13:15:44;98067.66;;;20.50;35.40
58668;BME280;59852;43.086;25.634;2023-03-25T13:21:08;98075.19;;;20.32;35.10
58668;BME280;59852;43.086;25.634;2023-03-25T13:23:34;98069.47;;;20.14;34.89
58668;BME280;59852;43.086;25.634;2023-03-25T13:26:13;98063.94;;;20.30;35.12
58668;BME280;59852;43.086;25.634;2023-03-25T13:28:43;98077.13;;;20.23;35.06
58668;BME280;59852;43.086;25.634;2023-03-25T13:31:30;98076.50;;;20.21;35.16
58668;BME280;59852;43.086;25.634;2023-03-25T13:34:02;98073.84;;;20.21;35.52
58668;BME280;59852;43.086;25.634;2023-03-25T13:36:30;98077.44;;;20.14;35.15
58668;BME280;59852;43.086;25.634;2023-03-25T13:39:19;98066.56;;;20.09;35.51
58668;BME280;59852;43.086;25.634;2023-03-25T13:41:49;98078.78;;;20.24;35.00
58668;BME280;59852;43.086;25.634;2023-03-25T13:44:20;98068.25;;;20.31;34.65
58668;BME280;59852;43.086;25.634;2023-03-25T13:46:50;98068.69;;;20.49;34.58
58668;BME280;59852;43.086;25.634;2023-03-25T13:49:22;98066.84;;;20.50;35.20
58668;BME280;59852;43.086;25.634;2023-03-25T13:51:49;98062.19;;;20.37;35.58
58668;BME280;59852;43.086;25.634;2023-03-25T14:12:11;98054.66;;;20.04;36.20
58668;BME280;59852;43.086;25.634;2023-03-25T14:14:43;98054.03;;;20.02;36.17
58668;BME280;59852;43.086;25.634;2023-03-25T14:17:09;98053.78;;;19.97;36.86
58668;BME280;59852;43.086;25.634;2023-03-25T14:19:38;98047.44;;;19.98;36.37
58668;BME280;59852;43.086;25.634;2023-03-25T14:22:12;98054.06;;;20.24;36.27
58668;BME280;59852;43.086;25.634;2023-03-25T14:24:39;98049.84;;;20.29;36.25
58668;BME280;59852;43.086;25.634;2023-03-25T14:27:14;98052.16;;;20.18;36.48
58668;BME280;59852;43.086;25.634;2023-03-25T14:29:42;98056.97;;;19.93;37.48
58668;BME280;59852;43.086;25.634;2023-03-25T14:34:41;98049.00;;;19.93;38.38
58668;BME280;59852;43.086;25.634;2023-03-25T14:42:01;98051.59;;;19.86;37.64
58668;BME280;59852;43.086;25.634;2023-03-25T14:44:31;98049.34;;;20.04;38.03
58668;BME280;59852;43.086;25.634;2023-03-25T14:46:59;98045.22;;;20.17;37.65
58668;BME280;59852;43.086;25.634;2023-03-25T14:49:26;98052.22;;;19.88;38.42
58668;BME280;59852;43.086;25.634;2023-03-25T14:52:11;98049.91;;;19.85;38.65
58668;BME280;59852;43.086;25.634;2023-03-25T14:54:39;98053.94;;;19.96;38.23
58668;BME280;59852;43.086;25.634;2023-03-25T14:57:06;98051.69;;;19.63;38.46
58668;BME280;59852;43.086;25.634;2023-03-25T15:02:13;98055.34;;;19.62;39.44
58668;BME280;59852;43.086;25.634;2023-03-25T15:04:40;98051.59;;;19.86;39.46
58668;BME280;59852;43.086;25.634;2023-03-25T15:07:10;98060.88;;;19.23;38.90
58668;BME280;59852;43.086;25.634;2023-03-25T15:09:48;98048.28;;;19.55;38.56
58668;BME280;59852;43.086;25.634;2023-03-25T15:12:15;98057.13;;;19.17;38.56
58668;BME280;59852;43.086;25.634;2023-03-25T15:14:42;98056.13;;;19.18;39.01
58668;BME280;59852;43.086;25.634;2023-03-25T15:17:11;98065.16;;;19.24;38.92
58668;BME280;59852;43.086;25.634;2023-03-25T15:22:21;98065.47;;;18.91;39.50
58668;BME280;59852;43.086;25.634;2023-03-25T15:24:48;98063.38;;;18.56;40.63
58668;BME280;59852;43.086;25.634;2023-03-25T15:32:24;98053.94;;;18.61;40.63
58668;BME280;59852;43.086;25.634;2023-03-25T15:40:03;98060.28;;;18.75;40.11
58668;BME280;59852;43.086;25.634;2023-03-25T15:53:32;98060.34;;;18.67;40.67
58668;BME280;59852;43.086;25.634;2023-03-25T15:56:05;98064.66;;;18.37;41.83